sensor_id;sensor_type;location;lat;lon;timestamp;temperature;humidity
35395;DHT22;21500;45.308;9.488;2023-04-24T00:00:09;15.30;99.90
35395;DHT22;21500;45.308;9.488;2023-04-24T00:02:36;15.30;99.90
35395;DHT22;21500;45.308;9.488;2023-04-24T00:05:06;15.20;99.90
35395;DHT22;21500;45.308;9.488;2023-04-24T00:07:32;15.20;99.90
35395;DHT22;21500;45.308;9.488;2023-04-24T00:09:58;15.20;99.90
35395;DHT22;21500;45.308;9.488;2023-04-24T00:12:25;15.20;99.90
35395;DHT22;21500;45.308;9.488;2023-04-24T00:14:51;15.20;99.90
35395;DHT22;21500;45.308;9.488;2023-04-24T00:17:17;15.20;99.90
35395;DHT22;21500;45.308;9.488;2023-04-24T00:19:49;15.20;99.90
35395;DHT22;21500;45.308;9.488;2023-04-24T00:22:24;15.20;99.90
35395;DHT22;21500;45.308;9.488;2023-04-24T00:24:50;15.10;99.90
35395;DHT22;21500;45.308;9.488;2023-04-24T00:27:16;15.20;99.90
35395;DHT22;21500;45.308;9.488;2023-04-24T00:29:42;15.10;99.90
35395;DHT22;21500;45.308;9.488;2023-04-24T00:32:07;15.10;99.90
35395;DHT22;21500;45.308;9.488;2023-04-24T00:34:33;15.20;99.90
35395;DHT22;21500;45.308;9.488;2023-04-24T00:36:59;15.20;99.90
35395;DHT22;21500;45.308;9.488;2023-04-24T00:39:25;15.20;99.90
35395;DHT22;21500;45.308;9.488;2023-04-24T00:41:51;15.20;99.90
35395;DHT22;21500;45.308;9.488;2023-04-24T00:44:16;15.10;99.90
35395;DHT22;21500;45.308;9.488;2023-04-24T00:46:42;15.10;99.90
35395;DHT22;21500;45.308;9.488;2023-04-24T00:49:08;15.20;99.90
35395;DHT22;21500;45.308;9.488;2023-04-24T00:51:34;15.20;99.90
35395;DHT22;21500;45.308;9.488;2023-04-24T00:54:02;15.20;99.90
35395;DHT22;21500;45.308;9.488;2023-04-24T00:56:28;15.10;99.90
35395;DHT22;21500;45.308;9.488;2023-04-24T00:58:54;15.10;99.90
35395;DHT22;21500;45.308;9.488;2023-04-24T01:01:20;15.10;99.90
35395;DHT22;21500;45.308;9.488;2023-04-24T01:03:47;15.10;99.90
35395;DHT22;21500;45.308;9.488;2023-04-24T01:06:14;15.00;99.90
35395;DHT22;21500;45.308;9.488;2023-04-24T01:08:41;15.10;99.90
35395;DHT22;21500;45.308;9.488;2023-04-24T01:11:07;15.00;99.90
35395;DHT22;21500;45.308;9.488;2023-04-24T01:13:33;15.00;99.90
35395;DHT22;21500;45.308;9.488;2023-04-24T01:15:59;15.00;99.90
35395;DHT22;21500;45.308;9.488;2023-04-24T01:18:27;15.10;99.90
35395;DHT22;21500;45.308;9.488;2023-04-24T01:20:57;15.00;99.90
35395;DHT22;21500;45.308;9.488;2023-04-24T01:23:23;15.10;99.90
35395;DHT22;21500;45.308;9.488;2023-04-24T01:25:50;14.90;99.90
35395;DHT22;21500;45.308;9.488;2023-04-24T01:28:17;15.00;99.90
35395;DHT22;21500;45.308;9.488;2023-04-24T01:30:44;15.00;99.90
35395;DHT22;21500;45.308;9.488;2023-04-24T01:33:10;15.10;99.90
35395;DHT22;21500;45.308;9.488;2023-04-24T01:35:37;15.20;99.90
35395;DHT22;21500;45.308;9.488;2023-04-24T01:38:03;15.10;99.90
35395;DHT22;21500;45.308;9.488;2023-04-24T01:40:30;15.00;99.90
35395;DHT22;21500;45.308;9.488;2023-04-24T01:42:57;15.00;99.90
35395;DHT22;21500;45.308;9.488;2023-04-24T01:45:23;15.00;99.90
35395;DHT22;21500;45.308;9.488;2023-04-24T01:47:49;15.00;99.90
35395;DHT22;21500;45.308;9.488;2023-04-24T01:50:16;15.00;99.90
35395;DHT22;21500;45.308;9.488;2023-04-24T01:52:43;14.90;99.90
35395;DHT22;21500;45.308;9.488;2023-04-24T01:55:09;15.00;99.90
35395;DHT22;21500;45.308;9.488;2023-04-24T01:57:35;14.90;99.90
35395;DHT22;21500;45.308;9.488;2023-04-24T02:00:03;14.90;99.90
35395;DHT22;21500;45.308;9.488;2023-04-24T02:02:42;15.00;99.90
35395;DHT22;21500;45.308;9.488;2023-04-24T02:05:08;15.00;99.90
35395;DHT22;21500;45.308;9.488;2023-04-24T02:07:35;14.90;99.90
35395;DHT22;21500;45.308;9.488;2023-04-24T02:10:02;15.00;99.90
35395;DHT22;21500;45.308;9.488;2023-04-24T02:12:29;14.80;99.90
35395;DHT22;21500;45.308;9.488;2023-04-24T02:14:55;14.80;99.90
35395;DHT22;21500;45.308;9.488;2023-04-24T02:17:21;14.80;99.90
35395;DHT22;21500;45.308;9.488;2023-04-24T02:19:47;14.80;99.90
35395;DHT22;21500;45.308;9.488;2023-04-24T02:22:12;14.80;99.90
35395;DHT22;21500;45.308;9.488;2023-04-24T02:24:39;14.80;99.90
35395;DHT22;21500;45.308;9.488;2023-04-24T02:27:06;14.80;99.90
35395;DHT22;21500;45.308;9.488;2023-04-24T02:29:32;14.80;99.90
35395;DHT22;21500;45.308;9.488;2023-04-24T02:31:57;14.70;99.90
35395;DHT22;21500;45.308;9.488;2023-04-24T02:34:23;14.70;99.90
35395;DHT22;21500;45.308;9.488;2023-04-24T02:36:49;14.70;99.90
35395;DHT22;21500;45.308;9.488;2023-04-24T02:39:15;14.80;99.90
35395;DHT22;21500;45.308;9.488;2023-04-24T02:41:44;14.70;99.90
35395;DHT22;21500;45.308;9.488;2023-04-24T02:44:10;14.80;99.90
35395;DHT22;21500;45.308;9.488;2023-04-24T02:46:35;14.70;99.90
35395;DHT22;21500;45.308;9.488;2023-04-24T02:49:01;14.80;99.90
35395;DHT22;21500;45.308;9.488;2023-04-24T02:51:28;14.80;99.90
35395;DHT22;21500;45.308;9.488;2023-04-24T02:53:54;14.70;99.90
35395;DHT22;21500;45.308;9.488;2023-04-24T02:56:20;14.60;99.90
35395;DHT22;21500;45.308;9.488;2023-04-24T02:58:46;14.70;99.90
35395;DHT22;21500;45.308;9.488;2023-04-24T03:01:11;14.80;99.90
35395;DHT22;21500;45.308;9.488;2023-04-24T03:03:38;14.80;99.90
35395;DHT22;21500;45.308;9.488;2023-04-24T03:06:05;14.80;99.90
35395;DHT22;21500;45.308;9.488;2023-04-24T03:08:34;14.90;99.90
35395;DHT22;21500;45.308;9.488;2023-04-24T03:11:00;15.10;99.90
35395;DHT22;21500;45.308;9.488;2023-04-24T03:13:26;15.10;99.90
35395;DHT22;21500;45.308;9.488;2023-04-24T03:15:51;15.00;99.90
35395;DHT22;21500;45.308;9.488;2023-04-24T03:18:18;15.00;99.90
35395;DHT22;21500;45.308;9.488;2023-04-24T03:20:45;15.00;99.90
35395;DHT22;21500;45.308;9.488;2023-04-24T03:23:13;15.00;99.90
35395;DHT22;21500;45.308;9.488;2023-04-24T03:25:39;15.00;99.90
35395;DHT22;21500;45.308;9.488;2023-04-24T03:28:05;14.90;99.90
35395;DHT22;21500;45.308;9.488;2023-04-24T03:30:39;14.90;99.90
35395;DHT22;21500;45.308;9.488;2023-04-24T03:33:05;14.90;99.90
35395;DHT22;21500;45.308;9.488;2023-04-24T03:35:35;14.90;99.90
35395;DHT22;21500;45.308;9.488;2023-04-24T03:38:04;14.70;99.90
35395;DHT22;21500;45.308;9.488;2023-04-24T03:40:52;14.70;99.90
35395;DHT22;21500;45.308;9.488;2023-04-24T03:43:41;14.70;99.90
35395;DHT22;21500;45.308;9.488;2023-04-24T03:46:07;14.60;99.90
35395;DHT22;21500;45.308;9.488;2023-04-24T03:48:38;14.50;99.90
35395;DHT22;21500;45.308;9.488;2023-04-24T03:51:06;14.60;99.90
35395;DHT22;21500;45.308;9.488;2023-04-24T03:53:33;14.50;99.90
35395;DHT22;21500;45.308;9.488;2023-04-24T03:55:59;14.50;99.90
35395;DHT22;21500;45.308;9.488;2023-04-24T03:58:25;14.60;99.90
35395;DHT22;21500;45.308;9.488;2023-04-24T04:00:53;14.50;99.90
35395;DHT22;21500;45.308;9.488;2023-04-24T04:03:45;14.40;99.90
35395;DHT22;21500;45.308;9.488;2023-04-24T04:06:10;14.40;99.90
35395;DHT22;21500;45.308;9.488;2023-04-24T04:08:38;14.50;99.90
35395;DHT22;21500;45.308;9.488;2023-04-24T04:11:04;14.50;99.90
35395;DHT22;21500;45.308;9.488;2023-04-24T04:13:30;14.60;99.90
35395;DHT22;21500;45.308;9.488;2023-04-24T04:15:57;14.60;99.90
35395;DHT22;21500;45.308;9.488;2023-04-24T04:18:22;14.50;99.90
35395;DHT22;21500;45.308;9.488;2023-04-24T04:20:48;14.40;99.90
35395;DHT22;21500;45.308;9.488;2023-04-24T04:23:15;14.30;99.90
35395;DHT22;21500;45.308;9.488;2023-04-24T04:26:12;14.20;99.90
35395;DHT22;21500;45.308;9.488;2023-04-24T04:28:52;14.20;99.90
35395;DHT22;21500;45.308;9.488;2023-04-24T04:35:06;14.40;99.90
35395;DHT22;21500;45.308;9.488;2023-04-24T04:37:33;14.20;99.90
35395;DHT22;21500;45.308;9.488;2023-04-24T04:40:17;14.20;99.90
35395;DHT22;21500;45.308;9.488;2023-04-24T04:42:51;14.10;99.90
35395;DHT22;21500;45.308;9.488;2023-04-24T04:46:01;14.00;99.90
35395;DHT22;21500;45.308;9.488;2023-04-24T05:05:08;14.10;99.90
35395;DHT22;21500;45.308;9.488;2023-04-24T05:18:07;14.10;99.90
35395;DHT22;21500;45.308;9.488;2023-04-24T05:42:59;14.50;99.90
35395;DHT22;21500;45.308;9.488;2023-04-24T05:45:25;14.40;99.90
35395;DHT22;21500;45.308;9.488;2023-04-24T05:47:51;14.50;99.90
35395;DHT22;21500;45.308;9.488;2023-04-24T05:50:18;14.60;99.90
35395;DHT22;21500;45.308;9.488;2023-04-24T05:52:44;14.70;99.90
35395;DHT22;21500;45.308;9.488;2023-04-24T07:54:33;17.80;99.90
35395;DHT22;21500;45.308;9.488;2023-04-24T08:43:21;19.30;99.90
35395;DHT22;21500;45.308;9.488;2023-04-24T08:56:21;19.10;99.90
35395;DHT22;21500;45.308;9.488;2023-04-24T08:58:54;18.40;99.90
35395;DHT22;21500;45.308;9.488;2023-04-24T09:01:43;18.10;99.90
35395;DHT22;21500;45.308;9.488;2023-04-24T09:04:28;18.80;99.90
35395;DHT22;21500;45.308;9.488;2023-04-24T09:07:01;19.50;99.90
35395;DHT22;21500;45.308;9.488;2023-04-24T09:16:42;19.10;99.90
35395;DHT22;21500;45.308;9.488;2023-04-24T09:19:09;19.00;99.90
35395;DHT22;21500;45.308;9.488;2023-04-24T09:21:40;19.40;99.90
35395;DHT22;21500;45.308;9.488;2023-04-24T09:24:15;20.30;99.90
35395;DHT22;21500;45.308;9.488;2023-04-24T09:26:46;19.40;99.90
35395;DHT22;21500;45.308;9.488;2023-04-24T09:29:16;19.30;99.90
35395;DHT22;21500;45.308;9.488;2023-04-24T09:31:53;19.10;99.90
35395;DHT22;21500;45.308;9.488;2023-04-24T09:34:28;18.80;99.90
35395;DHT22;21500;45.308;9.488;2023-04-24T09:37:01;19.40;99.90
35395;DHT22;21500;45.308;9.488;2023-04-24T09:39:28;18.50;99.90
35395;DHT22;21500;45.308;9.488;2023-04-24T09:41:56;19.30;99.90
35395;DHT22;21500;45.308;9.488;2023-04-24T09:44:27;19.60;99.90
35395;DHT22;21500;45.308;9.488;2023-04-24T09:49:30;19.30;99.90
35395;DHT22;21500;45.308;9.488;2023-04-24T09:52:10;20.10;99.90
35395;DHT22;21500;45.308;9.488;2023-04-24T09:54:55;20.40;99.90
35395;DHT22;21500;45.308;9.488;2023-04-24T09:57:23;19.70;99.90
35395;DHT22;21500;45.308;9.488;2023-04-24T09:59:53;19.30;99.90
35395;DHT22;21500;45.308;9.488;2023-04-24T10:02:20;19.50;99.90
35395;DHT22;21500;45.308;9.488;2023-04-24T10:04:59;19.00;99.90
35395;DHT22;21500;45.308;9.488;2023-04-24T10:07:33;19.10;99.90
35395;DHT22;21500;45.308;9.488;2023-04-24T10:10:03;19.10;99.90
35395;DHT22;21500;45.308;9.488;2023-04-24T10:12:33;19.60;99.90
35395;DHT22;21500;45.308;9.488;2023-04-24T10:14:59;18.90;99.90
35395;DHT22;21500;45.308;9.488;2023-04-24T10:17:28;18.80;99.90
35395;DHT22;21500;45.308;9.488;2023-04-24T10:20:23;18.90;99.90
35395;DHT22;21500;45.308;9.488;2023-04-24T10:22:53;19.80;99.90
35395;DHT22;21500;45.308;9.488;2023-04-24T10:25:21;20.10;99.90
35395;DHT22;21500;45.308;9.488;2023-04-24T10:27:48;19.80;99.90
35395;DHT22;21500;45.308;9.488;2023-04-24T10:30:15;19.40;99.90
35395;DHT22;21500;45.308;9.488;2023-04-24T10:32:42;19.80;99.90
35395;DHT22;21500;45.308;9.488;2023-04-24T10:35:09;19.30;99.90
35395;DHT22;21500;45.308;9.488;2023-04-24T10:37:42;19.10;99.90
35395;DHT22;21500;45.308;9.488;2023-04-24T10:40:11;19.50;99.90
35395;DHT22;21500;45.308;9.488;2023-04-24T10:42:40;18.90;99.90
35395;DHT22;21500;45.308;9.488;2023-04-24T10:45:20;19.20;99.90
35395;DHT22;21500;45.308;9.488;2023-04-24T10:47:58;19.60;99.90
35395;DHT22;21500;45.308;9.488;2023-04-24T10:50:27;19.70;99.90
35395;DHT22;21500;45.308;9.488;2023-04-24T10:52:53;20.50;99.90
35395;DHT22;21500;45.308;9.488;2023-04-24T10:55:48;19.70;99.90
35395;DHT22;21500;45.308;9.488;2023-04-24T10:58:14;19.70;99.90
35395;DHT22;21500;45.308;9.488;2023-04-24T11:00:43;20.30;99.90
35395;DHT22;21500;45.308;9.488;2023-04-24T11:03:30;20.30;99.90
35395;DHT22;21500;45.308;9.488;2023-04-24T11:06:02;20.20;99.90
35395;DHT22;21500;45.308;9.488;2023-04-24T11:08:31;20.70;99.90
35395;DHT22;21500;45.308;9.488;2023-04-24T11:11:03;21.00;99.90
35395;DHT22;21500;45.308;9.488;2023-04-24T11:16:29;20.20;99.90
35395;DHT22;21500;45.308;9.488;2023-04-24T11:19:18;21.00;99.90
35395;DHT22;21500;45.308;9.488;2023-04-24T11:22:13;20.80;99.90
35395;DHT22;21500;45.308;9.488;2023-04-24T11:24:50;20.60;99.90
35395;DHT22;21500;45.308;9.488;2023-04-24T11:28:17;20.40;99.90
35395;DHT22;21500;45.308;9.488;2023-04-24T11:30:44;20.20;99.90
35395;DHT22;21500;45.308;9.488;2023-04-24T11:38:53;20.80;99.90
35395;DHT22;21500;45.308;9.488;2023-04-24T11:41:22;20.90;99.90
35395;DHT22;21500;45.308;9.488;2023-04-24T11:43:48;20.90;99.90
35395;DHT22;21500;45.308;9.488;2023-04-24T11:46:17;21.40;99.90
35395;DHT22;21500;45.308;9.488;2023-04-24T11:48:45;20.90;99.90
35395;DHT22;21500;45.308;9.488;2023-04-24T11:51:13;21.20;99.90
35395;DHT22;21500;45.308;9.488;2023-04-24T11:53:39;21.60;99.90
35395;DHT22;21500;45.308;9.488;2023-04-24T11:56:05;20.90;99.90
35395;DHT22;21500;45.308;9.488;2023-04-24T11:58:38;21.20;99.90
35395;DHT22;21500;45.308;9.488;2023-04-24T12:04:17;21.60;99.90
35395;DHT22;21500;45.308;9.488;2023-04-24T12:07:03;22.10;99.90
35395;DHT22;21500;45.308;9.488;2023-04-24T13:00:05;23.10;91.30
35395;DHT22;21500;45.308;9.488;2023-04-24T13:02:50;22.40;92.30
35395;DHT22;21500;45.308;9.488;2023-04-24T13:05:26;22.70;91.60
35395;DHT22;21500;45.308;9.488;2023-04-24T13:07:55;22.60;87.60
35395;DHT22;21500;45.308;9.488;2023-04-24T13:10:28;22.70;89.70
35395;DHT22;21500;45.308;9.488;2023-04-24T13:12:56;23.20;90.50
35395;DHT22;21500;45.308;9.488;2023-04-24T13:15:23;23.10;90.90
35395;DHT22;21500;45.308;9.488;2023-04-24T13:17:50;23.00;83.80
35395;DHT22;21500;45.308;9.488;2023-04-24T13:20:17;23.00;85.10
35395;DHT22;21500;45.308;9.488;2023-04-24T13:22:43;22.90;80.60
35395;DHT22;21500;45.308;9.488;2023-04-24T13:49:22;23.70;73.70
35395;DHT22;21500;45.308;9.488;2023-04-24T13:51:50;24.00;74.70
35395;DHT22;21500;45.308;9.488;2023-04-24T13:54:17;23.70;70.70
35395;DHT22;21500;45.308;9.488;2023-04-24T13:56:43;23.50;72.10
35395;DHT22;21500;45.308;9.488;2023-04-24T13:59:09;23.60;73.10
35395;DHT22;21500;45.308;9.488;2023-04-24T14:01:35;23.80;73.50
35395;DHT22;21500;45.308;9.488;2023-04-24T14:04:01;23.80;71.80
35395;DHT22;21500;45.308;9.488;2023-04-24T14:06:27;24.00;72.30
35395;DHT22;21500;45.308;9.488;2023-04-24T14:08:53;24.40;68.10
35395;DHT22;21500;45.308;9.488;2023-04-24T14:11:19;24.40;66.80
35395;DHT22;21500;45.308;9.488;2023-04-24T14:13:46;24.40;65.20
35395;DHT22;21500;45.308;9.488;2023-04-24T14:16:12;23.90;61.40
35395;DHT22;21500;45.308;9.488;2023-04-24T14:18:38;24.20;61.80
35395;DHT22;21500;45.308;9.488;2023-04-24T14:21:04;24.00;62.70
35395;DHT22;21500;45.308;9.488;2023-04-24T14:23:31;23.80;62.50
35395;DHT22;21500;45.308;9.488;2023-04-24T14:25:58;23.80;61.70
35395;DHT22;21500;45.308;9.488;2023-04-24T14:28:24;23.50;62.10
35395;DHT22;21500;45.308;9.488;2023-04-24T14:30:51;23.60;62.70
35395;DHT22;21500;45.308;9.488;2023-04-24T14:39:30;24.20;61.90
35395;DHT22;21500;45.308;9.488;2023-04-24T14:42:25;24.30;61.40
35395;DHT22;21500;45.308;9.488;2023-04-24T14:44:52;24.20;60.60
35395;DHT22;21500;45.308;9.488;2023-04-24T14:47:18;24.20;62.90
35395;DHT22;21500;45.308;9.488;2023-04-24T14:50:29;24.20;61.80
35395;DHT22;21500;45.308;9.488;2023-04-24T14:58:13;24.40;61.00
35395;DHT22;21500;45.308;9.488;2023-04-24T15:00:38;24.30;62.90
35395;DHT22;21500;45.308;9.488;2023-04-24T15:03:06;23.90;61.90
35395;DHT22;21500;45.308;9.488;2023-04-24T15:05:32;24.00;61.50
35395;DHT22;21500;45.308;9.488;2023-04-24T15:07:58;24.20;62.50
35395;DHT22;21500;45.308;9.488;2023-04-24T15:10:24;23.90;63.40
35395;DHT22;21500;45.308;9.488;2023-04-24T15:12:51;23.70;61.40
35395;DHT22;21500;45.308;9.488;2023-04-24T15:15:18;24.00;61.80
35395;DHT22;21500;45.308;9.488;2023-04-24T15:17:46;24.20;63.10
35395;DHT22;21500;45.308;9.488;2023-04-24T15:20:12;24.20;62.60
35395;DHT22;21500;45.308;9.488;2023-04-24T15:22:38;24.30;64.40
35395;DHT22;21500;45.308;9.488;2023-04-24T15:25:04;24.10;62.20
35395;DHT22;21500;45.308;9.488;2023-04-24T15:27:44;24.30;61.50
35395;DHT22;21500;45.308;9.488;2023-04-24T15:30:12;24.10;60.20
35395;DHT22;21500;45.308;9.488;2023-04-24T15:32:38;24.20;60.00
35395;DHT22;21500;45.308;9.488;2023-04-24T15:35:05;24.20;60.80
35395;DHT22;21500;45.308;9.488;2023-04-24T15:37:31;24.10;60.60
35395;DHT22;21500;45.308;9.488;2023-04-24T15:45:21;24.50;60.30
35395;DHT22;21500;45.308;9.488;2023-04-24T15:47:47;24.60;61.90
35395;DHT22;21500;45.308;9.488;2023-04-24T15:50:14;24.70;62.00
35395;DHT22;21500;45.308;9.488;2023-04-24T15:52:42;24.60;61.40
35395;DHT22;21500;45.308;9.488;2023-04-24T15:55:09;23.90;59.10
35395;DHT22;21500;45.308;9.488;2023-04-24T15:57:35;23.90;59.00
35395;DHT22;21500;45.308;9.488;2023-04-24T16:00:03;24.10;59.40
35395;DHT22;21500;45.308;9.488;2023-04-24T16:02:37;24.20;58.40
35395;DHT22;21500;45.308;9.488;2023-04-24T16:05:03;24.20;58.20
35395;DHT22;21500;45.308;9.488;2023-04-24T16:07:30;24.50;58.80
35395;DHT22;21500;45.308;9.488;2023-04-24T16:09:58;24.70;58.20
35395;DHT22;21500;45.308;9.488;2023-04-24T16:12:28;24.70;59.10
35395;DHT22;21500;45.308;9.488;2023-04-24T16:55:25;24.20;59.50
35395;DHT22;21500;45.308;9.488;2023-04-24T16:57:51;24.30;59.30
35395;DHT22;21500;45.308;9.488;2023-04-24T17:00:17;24.40;59.60
35395;DHT22;21500;45.308;9.488;2023-04-24T18:10:13;21.50;69.60
35395;DHT22;21500;45.308;9.488;2023-04-24T18:20:44;21.10;70.40
35395;DHT22;21500;45.308;9.488;2023-04-24T20:15:11;19.70;67.90
35395;DHT22;21500;45.308;9.488;2023-04-24T20:17:38;19.80;67.30
35395;DHT22;21500;45.308;9.488;2023-04-24T20:30:52;19.00;83.70
35395;DHT22;21500;45.308;9.488;2023-04-24T20:33:19;19.00;86.80
35395;DHT22;21500;45.308;9.488;2023-04-24T20:35:44;18.80;90.40
35395;DHT22;21500;45.308;9.488;2023-04-24T20:38:10;18.70;91.60
35395;DHT22;21500;45.308;9.488;2023-04-24T20:40:37;18.50;94.70
35395;DHT22;21500;45.308;9.488;2023-04-24T20:43:03;18.40;95.80
35395;DHT22;21500;45.308;9.488;2023-04-24T20:45:30;18.30;97.40
35395;DHT22;21500;45.308;9.488;2023-04-24T20:47:55;18.30;98.80
35395;DHT22;21500;45.308;9.488;2023-04-24T20:50:21;18.20;99.90
35395;DHT22;21500;45.308;9.488;2023-04-24T20:52:47;18.10;99.90
35395;DHT22;21500;45.308;9.488;2023-04-24T20:55:13;18.10;99.90
35395;DHT22;21500;45.308;9.488;2023-04-24T20:57:39;17.80;99.90
35395;DHT22;21500;45.308;9.488;2023-04-24T21:00:07;17.80;99.90
35395;DHT22;21500;45.308;9.488;2023-04-24T21:02:35;17.70;99.90
35395;DHT22;21500;45.308;9.488;2023-04-24T21:05:01;17.60;99.90
35395;DHT22;21500;45.308;9.488;2023-04-24T21:07:28;17.40;99.90
35395;DHT22;21500;45.308;9.488;2023-04-24T21:09:54;17.50;99.90
35395;DHT22;21500;45.308;9.488;2023-04-24T21:12:19;17.40;99.90
35395;DHT22;21500;45.308;9.488;2023-04-24T21:14:45;17.40;99.90
35395;DHT22;21500;45.308;9.488;2023-04-24T21:17:11;17.30;99.90
35395;DHT22;21500;45.308;9.488;2023-04-24T21:19:37;17.20;99.90
35395;DHT22;21500;45.308;9.488;2023-04-24T21:22:03;17.30;99.90
35395;DHT22;21500;45.308;9.488;2023-04-24T21:24:29;17.10;99.90
35395;DHT22;21500;45.308;9.488;2023-04-24T21:26:55;17.00;99.90
35395;DHT22;21500;45.308;9.488;2023-04-24T21:29:22;16.90;99.90
35395;DHT22;21500;45.308;9.488;2023-04-24T21:31:47;16.90;99.90
35395;DHT22;21500;45.308;9.488;2023-04-24T21:34:14;16.80;99.90
35395;DHT22;21500;45.308;9.488;2023-04-24T21:36:40;16.70;99.90
35395;DHT22;21500;45.308;9.488;2023-04-24T21:39:06;16.70;99.90
35395;DHT22;21500;45.308;9.488;2023-04-24T21:41:31;16.60;99.90
35395;DHT22;21500;45.308;9.488;2023-04-24T21:43:58;16.50;99.90
35395;DHT22;21500;45.308;9.488;2023-04-24T21:46:26;16.40;99.90
35395;DHT22;21500;45.308;9.488;2023-04-24T21:48:51;16.30;99.90
35395;DHT22;21500;45.308;9.488;2023-04-24T21:51:17;16.30;99.90
35395;DHT22;21500;45.308;9.488;2023-04-24T21:53:46;16.20;99.90
35395;DHT22;21500;45.308;9.488;2023-04-24T21:56:11;16.30;99.90
35395;DHT22;21500;45.308;9.488;2023-04-24T21:58:37;16.10;99.90
35395;DHT22;21500;45.308;9.488;2023-04-24T22:01:03;16.10;99.90
35395;DHT22;21500;45.308;9.488;2023-04-24T22:03:29;16.00;99.90
35395;DHT22;21500;45.308;9.488;2023-04-24T22:05:56;16.00;99.90
35395;DHT22;21500;45.308;9.488;2023-04-24T22:08:22;15.90;99.90
35395;DHT22;21500;45.308;9.488;2023-04-24T22:10:48;15.80;99.90
35395;DHT22;21500;45.308;9.488;2023-04-24T22:13:15;15.80;99.90
35395;DHT22;21500;45.308;9.488;2023-04-24T22:15:41;15.80;99.90
35395;DHT22;21500;45.308;9.488;2023-04-24T22:18:08;15.70;99.90
35395;DHT22;21500;45.308;9.488;2023-04-24T22:20:36;15.70;99.90
35395;DHT22;21500;45.308;9.488;2023-04-24T22:23:02;15.60;99.90
35395;DHT22;21500;45.308;9.488;2023-04-24T22:25:28;15.60;99.90
35395;DHT22;21500;45.308;9.488;2023-04-24T22:27:54;15.60;99.90
35395;DHT22;21500;45.308;9.488;2023-04-24T22:30:19;15.60;99.90
35395;DHT22;21500;45.308;9.488;2023-04-24T22:32:46;15.50;99.90
35395;DHT22;21500;45.308;9.488;2023-04-24T22:35:12;15.50;99.90
35395;DHT22;21500;45.308;9.488;2023-04-24T22:37:37;15.40;99.90
35395;DHT22;21500;45.308;9.488;2023-04-24T22:40:05;15.30;99.90
35395;DHT22;21500;45.308;9.488;2023-04-24T22:42:33;15.30;99.90
35395;DHT22;21500;45.308;9.488;2023-04-24T22:44:59;15.20;99.90
35395;DHT22;21500;45.308;9.488;2023-04-24T22:47:25;15.20;99.90
35395;DHT22;21500;45.308;9.488;2023-04-24T22:49:50;15.10;99.90
35395;DHT22;21500;45.308;9.488;2023-04-24T22:52:19;15.10;99.90
35395;DHT22;21500;45.308;9.488;2023-04-24T22:54:45;15.10;99.90
35395;DHT22;21500;45.308;9.488;2023-04-24T22:57:11;15.00;99.90
35395;DHT22;21500;45.308;9.488;2023-04-24T22:59:37;15.00;99.90
35395;DHT22;21500;45.308;9.488;2023-04-24T23:02:03;15.10;99.90
35395;DHT22;21500;45.308;9.488;2023-04-24T23:04:29;15.00;99.90
35395;DHT22;21500;45.308;9.488;2023-04-24T23:06:55;15.10;99.90
35395;DHT22;21500;45.308;9.488;2023-04-24T23:09:21;15.00;99.90
35395;DHT22;21500;45.308;9.488;2023-04-24T23:11:46;14.90;99.90
35395;DHT22;21500;45.308;9.488;2023-04-24T23:14:12;15.00;99.90
35395;DHT22;21500;45.308;9.488;2023-04-24T23:16:38;15.10;99.90
35395;DHT22;21500;45.308;9.488;2023-04-24T23:19:05;15.10;99.90
35395;DHT22;21500;45.308;9.488;2023-04-24T23:21:34;15.00;99.90
35395;DHT22;21500;45.308;9.488;2023-04-24T23:24:00;14.90;99.90
35395;DHT22;21500;45.308;9.488;2023-04-24T23:26:26;15.00;99.90
35395;DHT22;21500;45.308;9.488;2023-04-24T23:28:52;15.10;99.90
35395;DHT22;21500;45.308;9.488;2023-04-24T23:31:17;14.90;99.90
35395;DHT22;21500;45.308;9.488;2023-04-24T23:33:43;15.00;99.90
35395;DHT22;21500;45.308;9.488;2023-04-24T23:36:09;15.00;99.90
35395;DHT22;21500;45.308;9.488;2023-04-24T23:38:36;14.90;99.90
35395;DHT22;21500;45.308;9.488;2023-04-24T23:41:01;14.90;99.90
35395;DHT22;21500;45.308;9.488;2023-04-24T23:43:27;14.90;99.90
35395;DHT22;21500;45.308;9.488;2023-04-24T23:45:53;14.90;99.90
35395;DHT22;21500;45.308;9.488;2023-04-24T23:48:19;14.80;99.90
35395;DHT22;21500;45.308;9.488;2023-04-24T23:50:44;14.80;99.90
35395;DHT22;21500;45.308;9.488;2023-04-24T23:53:10;14.80;99.90
35395;DHT22;21500;45.308;9.488;2023-04-24T23:55:36;14.80;99.90
35395;DHT22;21500;45.308;9.488;2023-04-24T23:58:02;14.70;99.90
